Weather History for Sturgis, MI

Change the Weather History Date:

Thursday, February 7, 2013

  Actual Average (KHAI) Record (KHAI)
Temperature  
Mean Temperature 30 °F -  
Max Temperature 39 °F 29 °F 53 °F (2009)
Min Temperature 21 °F 12 °F -10 °F (1967)
Degree Days  
Heating Degree Days 35    
Moisture  
Dew Point 25 °F    
Average Humidity 78    
Maximum Humidity 93    
Minimum Humidity 61    
Precipitation  
Precipitation 0.00 in - - ()
Sea Level Pressure  
Sea Level Pressure 30.01 in    
Wind  
Wind Speed 8 mph (ESE)    
Max Wind Speed 13 mph    
Max Gust Speed 18 mph    
Visibility 8 miles    
Events Snow    
Averages and records for this station are not official NWS values.
T = Trace of Precipitation, MM = Missing Value Source: NWS Daily Summary

Daily Weather History Graph

Daily Weather History Graph

Search for Another Location

Airport:

Trip Planner

Search our weather history database for the weather conditions in past years. The results will help you decide how hot, cold, wet, or windy it might be!

Date:

Astronomy

Feb. 07, 2013 Rise Set
Actual Time 7:47 AM EST 6:05 PM EST
Civil Twilight 7:18 AM EST 6:34 PM EST
Nautical Twilight 6:45 AM EST 7:07 PM EST
Astronomical Twilight 6:12 AM EST 7:39 PM EST
Moon 5:27 AM EST (2/7) 3:27 PM EST (2/7)
Length of Visible Light 11h 16m
Length of Day
10h 17m
Waning Crescent, 9% of the Moon is Illuminated
Feb 7
Waning Crescent
Feb 10
New
Feb 17
First Quarter
Feb 25
Full
Mar 4
Last Quarter

Hourly Weather History & Observations

Time (EST) Temp. Windchill Dew Point Humidity Pressure Visibility Wind Dir Wind Speed Gust Speed Precip Events Conditions
12:15 AM 26.6 °F 17.5 °F 17.6 °F 69% 30.18 in 10.0 mi SE 9.2 mph - N/A   Overcast
12:35 AM 26.6 °F 18.2 °F 17.6 °F 69% 30.18 in 10.0 mi SE 8.1 mph - N/A   Mostly Cloudy
12:54 AM 26.6 °F 16.8 °F 19.4 °F 74% 30.17 in 10.0 mi SSE 10.4 mph - N/A   Mostly Cloudy
1:15 AM 26.6 °F 17.5 °F 19.4 °F 74% 30.17 in 10.0 mi SSE 9.2 mph - N/A   Overcast
1:34 AM 26.6 °F 18.2 °F 19.4 °F 74% 30.17 in 10.0 mi SSE 8.1 mph - N/A   Mostly Cloudy
1:55 AM 26.6 °F 18.2 °F 19.4 °F 74% 30.16 in 10.0 mi SE 8.1 mph - N/A   Mostly Cloudy
2:15 AM 26.6 °F 18.2 °F 21.2 °F 80% 30.15 in 10.0 mi SE 8.1 mph - N/A   Mostly Cloudy
2:34 AM 26.6 °F 19.1 °F 21.2 °F 80% 30.15 in 10.0 mi SE 6.9 mph - N/A   Scattered Clouds
2:55 AM 26.6 °F 17.5 °F 21.2 °F 80% 30.15 in 10.0 mi SE 9.2 mph - N/A   Scattered Clouds
3:15 AM 26.6 °F 19.1 °F 21.2 °F 80% 30.14 in 10.0 mi SSE 6.9 mph - N/A   Clear
3:34 AM 26.6 °F 18.2 °F 21.2 °F 80% 30.15 in 10.0 mi SSE 8.1 mph - N/A   Clear
3:55 AM 26.6 °F 20.0 °F 21.2 °F 80% 30.14 in 10.0 mi ESE 5.8 mph - N/A   Clear
4:15 AM 24.8 °F 17.9 °F 19.4 °F 80% 30.14 in 10.0 mi ESE 5.8 mph - N/A   Clear
4:34 AM 24.8 °F 19.1 °F 19.4 °F 80% 30.15 in 7.0 mi East 4.6 mph - N/A   Clear
4:55 AM 23.0 °F 17.0 °F 19.4 °F 86% 30.15 in 7.0 mi East 4.6 mph - N/A   Clear
5:14 AM 23.0 °F 17.0 °F 19.4 °F 86% 30.15 in 7.0 mi East 4.6 mph - N/A   Clear
5:35 AM 21.2 °F 13.6 °F 19.4 °F 93% 30.15 in 7.0 mi East 5.8 mph - N/A   Clear
5:54 AM 21.2 °F 13.6 °F 19.4 °F 93% 30.14 in 7.0 mi ESE 5.8 mph - N/A   Clear
6:15 AM 23.0 °F 14.7 °F 19.4 °F 86% 30.14 in 7.0 mi ESE 6.9 mph - N/A   Clear
6:34 AM 24.8 °F 19.1 °F 19.4 °F 80% 30.14 in 7.0 mi ESE 4.6 mph - N/A   Scattered Clouds
6:55 AM 24.8 °F 17.9 °F 19.4 °F 80% 30.14 in 7.0 mi ESE 5.8 mph - N/A   Scattered Clouds
7:15 AM 24.8 °F 16.1 °F 21.2 °F 86% 30.13 in 7.0 mi ESE 8.1 mph - N/A   Scattered Clouds
7:35 AM 24.8 °F 16.1 °F 21.2 °F 86% 30.13 in 7.0 mi SE 8.1 mph - N/A   Scattered Clouds
7:55 AM 24.8 °F 16.9 °F 21.2 °F 86% 30.12 in 7.0 mi SE 6.9 mph - N/A   Scattered Clouds
8:14 AM 24.8 °F 17.9 °F 21.2 °F 86% 30.12 in 7.0 mi SE 5.8 mph - N/A   Clear
8:35 AM 26.6 °F 18.2 °F 21.2 °F 80% 30.12 in 7.0 mi NNE 8.1 mph - N/A   Mostly Cloudy
8:55 AM 26.6 °F 19.1 °F 21.2 °F 80% 30.12 in 7.0 mi NNE 6.9 mph - N/A   Mostly Cloudy
9:14 AM 26.6 °F 18.2 °F 21.2 °F 80% 30.12 in 7.0 mi SE 8.1 mph - N/A   Mostly Cloudy
9:35 AM 28.4 °F 19.1 °F 21.2 °F 74% 30.11 in 7.0 mi SE 10.4 mph - N/A   Mostly Cloudy
9:54 AM 28.4 °F 18.0 °F 21.2 °F 74% 30.10 in 7.0 mi SE 12.7 mph - N/A   Mostly Cloudy
10:15 AM 28.4 °F 19.7 °F 21.2 °F 74% 30.10 in 7.0 mi SSE 9.2 mph - N/A   Overcast
10:35 AM 28.4 °F 19.7 °F 23.0 °F 80% 30.09 in 5.0 mi SE 9.2 mph - N/A   Haze
10:55 AM 30.2 °F 22.6 °F 23.0 °F 75% 30.08 in 7.0 mi SE 8.1 mph - N/A   Mostly Cloudy
11:15 AM 32.0 °F 24.2 °F 24.8 °F 75% 30.08 in 7.0 mi SE 9.2 mph - N/A   Overcast
11:35 AM 32.0 °F 24.2 °F 24.8 °F 75% 30.07 in 7.0 mi ESE 9.2 mph - N/A   Overcast
11:55 AM 33.8 °F 26.4 °F 24.8 °F 70% 30.06 in 7.0 mi SE 9.2 mph - N/A   Scattered Clouds
12:14 PM 33.8 °F 29.6 °F 24.8 °F 70% 30.05 in 7.0 mi SE 4.6 mph - N/A   Scattered Clouds
12:35 PM 33.8 °F 25.8 °F 26.6 °F 75% 30.03 in 7.0 mi SE 10.4 mph - N/A   Mostly Cloudy
12:55 PM 35.6 °F 28.6 °F 26.6 °F 70% 30.01 in 7.0 mi SE 9.2 mph - N/A   Scattered Clouds
1:14 PM 35.6 °F 27.5 °F 26.6 °F 70% 30.00 in 7.0 mi SE 11.5 mph - N/A   Clear
1:35 PM 37.4 °F 30.3 °F 26.6 °F 65% 29.99 in 10.0 mi SE 10.4 mph - N/A   Clear
1:55 PM 37.4 °F 31.4 °F 26.6 °F 65% 29.98 in 10.0 mi SE 8.1 mph - N/A   Clear
2:14 PM 39.2 °F 34.2 °F 28.4 °F 65% 29.96 in 10.0 mi ESE 6.9 mph - N/A   Clear
2:35 PM 39.2 °F 33.0 °F 28.4 °F 65% 29.95 in 10.0 mi East 9.2 mph - N/A   Clear
2:55 PM 39.2 °F 33.6 °F 28.4 °F 65% 29.93 in 10.0 mi ESE 8.1 mph - N/A   Clear
3:14 PM 39.2 °F 33.0 °F 28.4 °F 65% 29.93 in 10.0 mi SE 9.2 mph - N/A   Clear
3:35 PM 39.2 °F 33.0 °F 26.6 °F 61% 29.93 in 10.0 mi SE 9.2 mph - N/A   Clear
3:55 PM 39.2 °F 34.2 °F 28.4 °F 65% 29.92 in 10.0 mi SE 6.9 mph - N/A   Clear
4:14 PM 39.2 °F 33.6 °F 28.4 °F 65% 29.90 in 10.0 mi ESE 8.1 mph - N/A   Scattered Clouds
4:35 PM 37.4 °F 30.8 °F 28.4 °F 70% 29.89 in 10.0 mi ESE 9.2 mph - N/A   Scattered Clouds
4:55 PM 37.4 °F 30.8 °F 28.4 °F 70% 29.89 in 10.0 mi ESE 9.2 mph - N/A   Scattered Clouds
5:14 PM 37.4 °F 30.8 °F 28.4 °F 70% 29.88 in 10.0 mi ESE 9.2 mph - N/A   Scattered Clouds
5:35 PM 37.4 °F 29.8 °F 28.4 °F 70% 29.88 in 10.0 mi ESE 11.5 mph - N/A   Scattered Clouds
5:55 PM 37.4 °F 30.3 °F 28.4 °F 70% 29.88 in 7.0 mi SE 10.4 mph - N/A   Mostly Cloudy
6:14 PM 35.6 °F 28.0 °F 28.4 °F 75% 29.87 in 7.0 mi SE 10.4 mph - N/A   Overcast
6:35 PM 35.6 °F 29.9 °F 28.4 °F 75% 29.86 in 7.0 mi ESE 6.9 mph - N/A   Overcast
6:55 PM 35.6 °F 28.0 °F 28.4 °F 75% 29.85 in 7.0 mi ESE 10.4 mph - N/A   Overcast
7:14 PM 35.6 °F 28.0 °F 28.4 °F 75% 29.84 in 7.0 mi ESE 10.4 mph 18.4 mph N/A   Overcast
7:35 PM 35.6 °F 28.0 °F 28.4 °F 75% 29.84 in 7.0 mi ESE 10.4 mph - N/A   Overcast
7:55 PM 35.6 °F 28.6 °F 30.2 °F 81% 29.83 in 7.0 mi ESE 9.2 mph - N/A   Overcast
8:14 PM 35.6 °F 28.6 °F 30.2 °F 81% 29.83 in 7.0 mi East 9.2 mph - N/A   Overcast
8:35 PM 35.6 °F 31.7 °F 30.2 °F 81% 29.84 in 7.0 mi NE 4.6 mph - N/A   Overcast
8:54 PM 33.8 °F 27.7 °F 30.2 °F 87% 29.84 in 5.0 mi NE 6.9 mph - N/A   Overcast
9:15 PM 33.8 °F 28.6 °F 30.2 °F 87% 29.84 in 4.0 mi ENE 5.8 mph - N/A   Overcast
9:35 PM 33.8 °F 28.6 °F 30.2 °F 87% 29.84 in 4.0 mi NE 5.8 mph - N/A   Overcast
9:54 PM 33.8 °F 26.4 °F 30.2 °F 87% 29.83 in 3.0 mi ENE 9.2 mph - N/A Snow Snow
10:15 PM 32.0 °F 23.6 °F 30.2 °F 93% 29.81 in 4.0 mi ENE 10.4 mph - N/A   Overcast
10:35 PM 32.0 °F 23.6 °F 30.2 °F 93% 29.80 in 5.0 mi East 10.4 mph - N/A   Overcast
10:54 PM 32.0 °F 23.0 °F 30.2 °F 93% 29.78 in 4.0 mi East 11.5 mph - N/A   Overcast
11:15 PM 32.0 °F 24.8 °F 30.2 °F 93% 29.78 in 3.0 mi East 8.1 mph - N/A   Overcast
11:35 PM 32.0 °F 26.4 °F 30.2 °F 93% 29.78 in 4.0 mi ENE 5.8 mph - N/A   Mostly Cloudy
11:55 PM 32.0 °F 28.7 °F 30.2 °F 93% 29.79 in 4.0 mi NNE 3.5 mph - N/A Snow Light Snow